Time;durP1;ratioP1;P1;durP2;ratioP2;P2;SDS_P1;SDS_P2;PMS_P1;PMS_P2;Temp;Humidity;BMP_temperature;BMP_pressure;BME280_temperature;BME280_humidity;BME280_pressure;Samples;Min_cycle;Max_cycle;Signal;HPM_P1;HPM_P2
2023/02/09 00:01:00;;;;;;;;;;;;;;;-144.99;nan;52501.09;5026444;28;19997;-75
2023/02/09 00:03:27;;;;;;;;;;;;;;;-144.99;nan;52480.72;5034435;28;20008;-74
2023/02/09 00:05:53;;;;;;;;;;;;;;;-144.99;nan;52533.69;5029739;28;19964;-74
2023/02/09 00:08:19;;;;;;;;;;;;;;;-144.99;nan;52531.66;5026595;28;19982;-75
2023/02/09 00:10:46;;;;;;;;;;;;;;;-144.99;nan;52517.41;5025364;28;20468;-72
2023/02/09 00:13:22;;;;;;;;;;;;;;;-144.99;nan;52525.56;5025809;28;20012;-75
2023/02/09 00:15:49;;;;;;;;;;;;;;;-144.99;nan;52547.97;5025460;28;19925;-74
2023/02/09 00:18:15;;;;;;;;;;;;;;;-144.99;nan;52550.00;5023668;28;20018;-74
2023/02/09 00:20:41;;;;;;;;;;;;;;;-144.99;nan;52521.47;5020997;28;19926;-75
2023/02/09 00:23:08;;;;;;;;;;;;;;;-144.99;nan;52505.16;5025548;28;19968;-75
2023/02/09 00:25:34;;;;;;;;;;;;;;;-144.99;nan;52492.94;5024094;28;19956;-75
2023/02/09 00:28:01;;;;;;;;;;;;;;;-144.99;nan;52501.09;5027401;28;19964;-74
2023/02/09 00:30:29;;;;;;;;;;;;;;;-144.99;nan;52545.94;5025676;28;20360;-75
2023/02/09 00:32:55;;;;;;;;;;;;;;;-144.99;nan;52562.25;5027214;28;19983;-75
2023/02/09 00:35:22;;;;;;;;;;;;;;;-144.99;nan;52527.59;5025900;28;19926;-76
2023/02/09 00:37:48;;;;;;;;;;;;;;;-144.99;nan;52525.56;5041543;28;19929;-77
2023/02/09 00:40:14;;;;;;;;;;;;;;;-144.99;nan;52550.00;5048192;28;19925;-76
2023/02/09 00:42:41;;;;;;;;;;;;;;;-144.99;nan;52505.16;5048183;28;19925;-77
2023/02/09 00:45:08;;;;;;;;;;;;;;;-144.99;nan;52511.28;5051601;28;19929;-76
2023/02/09 00:47:36;;;;;;;;;;;;;;;-144.99;nan;52550.00;5056253;28;19929;-76
2023/02/09 00:50:05;;;;;;;;;;;;;;;-144.99;nan;52505.16;5050140;28;19940;-76
2023/02/09 00:52:31;;;;;;;;;;;;;;;-144.99;nan;52521.47;5044667;28;19936;-76
2023/02/09 00:54:58;;;;;;;;;;;;;;;-144.99;nan;52517.41;5045748;28;20000;-75
2023/02/09 00:57:24;;;;;;;;;;;;;;;-144.99;nan;52517.41;5037159;28;19979;-74
2023/02/09 00:59:51;;;;;;;;;;;;;;;-144.99;nan;52509.25;5028402;28;19964;-75
2023/02/09 01:02:18;;;;;;;;;;;;;;;-144.99;nan;52554.09;5028373;28;19926;-75
2023/02/09 01:04:45;;;;;;;;;;;;;;;-144.99;nan;52541.84;5030091;28;20085;-74
2023/02/09 01:07:12;;;;;;;;;;;;;;;-144.99;nan;52562.25;5036757;28;19986;-74
2023/02/09 01:09:38;;;;;;;;;;;;;;;-144.99;nan;52568.34;5028447;28;19957;-75
2023/02/09 01:12:05;;;;;;;;;;;;;;;-144.99;nan;52537.78;5029100;28;20015;-75
2023/02/09 01:14:31;;;;;;;;;;;;;;;-144.99;nan;52562.25;5028714;28;20191;-75
2023/02/09 01:16:58;;;;;;;;;;;;;;;-144.99;nan;52547.97;5028927;28;19961;-75
2023/02/09 01:19:25;;;;;;;;;;;;;;;-144.99;nan;52507.19;5028945;28;20315;-74
2023/02/09 01:21:53;;;;;;;;;;;;;;;-144.99;nan;52545.94;5021741;28;19935;-75
2023/02/09 01:24:19;;;;;;;;;;;;;;;-144.99;nan;52527.59;5029309;28;19972;-75
2023/02/09 01:26:46;;;;;;;;;;;;;;;-144.99;nan;52515.34;5028838;28;19961;-75
2023/02/09 01:29:13;;;;;;;;;;;;;;;-144.99;nan;52505.16;5028862;28;19964;-75
2023/02/09 01:31:40;;;;;;;;;;;;;;;-144.99;nan;52525.56;5025959;28;19932;-74
2023/02/09 01:34:06;;;;;;;;;;;;;;;-144.99;nan;52533.69;5027603;28;20028;-75
2023/02/09 01:36:33;;;;;;;;;;;;;;;-144.99;nan;52505.16;5033818;28;20041;-74
2023/02/09 01:39:01;;;;;;;;;;;;;;;-144.99;nan;52490.91;5028445;28;20032;-74
2023/02/09 01:41:28;;;;;;;;;;;;;;;-144.99;nan;52562.25;5021824;28;20015;-74
2023/02/09 01:43:59;;;;;;;;;;;;;;;-144.99;nan;52517.41;5030383;28;20462;-75
2023/02/09 01:46:26;;;;;;;;;;;;;;;-144.99;nan;52527.59;5034477;28;19929;-75
2023/02/09 01:48:56;;;;;;;;;;;;;;;-144.99;nan;52486.81;5031333;28;20376;-75
2023/02/09 01:51:24;;;;;;;;;;;;;;;-144.99;nan;52541.84;5032482;28;19969;-74
2023/02/09 01:53:51;;;;;;;;;;;;;;;-144.99;nan;52554.09;5028307;28;19961;-74
2023/02/09 01:56:21;;;;;;;;;;;;;;;-144.99;nan;52588.75;5026577;28;20373;-74
2023/02/09 01:58:48;;;;;;;;;;;;;;;-144.99;nan;52541.84;5028378;28;19987;-76
2023/02/09 02:01:14;;;;;;;;;;;;;;;-144.99;nan;52541.84;5030211;28;20458;-74
2023/02/09 02:03:41;;;;;;;;;;;;;;;-144.99;nan;52545.94;5029144;28;19933;-75
2023/02/09 02:06:10;;;;;;;;;;;;;;;-144.99;nan;52552.03;5028948;28;19965;-75
2023/02/09 02:08:39;;;;;;;;;;;;;;;-144.99;nan;52566.31;5028866;28;19972;-75
2023/02/09 02:11:07;;;;;;;;;;;;;;;-144.99;nan;52525.56;5024847;28;19987;-74
2023/02/09 02:13:35;;;;;;;;;;;;;;;-144.99;nan;52533.69;5027631;28;20047;-74
2023/02/09 02:16:04;;;;;;;;;;;;;;;-144.99;nan;52517.41;5026739;28;20326;-75
2023/02/09 02:18:39;;;;;;;;;;;;;;;-144.99;nan;52509.25;5027638;28;19960;-75
2023/02/09 02:21:23;;;;;;;;;;;;;;;-144.99;nan;52529.63;5027232;28;19960;-76
2023/02/09 02:23:59;;;;;;;;;;;;;;;-144.99;nan;52537.78;5026312;28;19925;-75
2023/02/09 02:26:37;;;;;;;;;;;;;;;-144.99;nan;52501.09;5025817;28;20485;-75
2023/02/09 02:29:24;;;;;;;;;;;;;;;-144.99;nan;52501.09;5026233;28;20171;-74
2023/02/09 02:32:02;;;;;;;;;;;;;;;-144.99;nan;52525.56;5022652;28;19992;-75
2023/02/09 02:34:34;;;;;;;;;;;;;;;-144.99;nan;52525.56;5040557;28;19929;-75
2023/02/09 02:37:06;;;;;;;;;;;;;;;-144.99;nan;52464.41;5040622;28;19956;-75
2023/02/09 02:39:37;;;;;;;;;;;;;;;-144.99;nan;52525.56;5029908;28;19929;-75
2023/02/09 02:44:59;;;;;;;;;;;;;;;-144.99;nan;52521.47;5033702;28;19933;-74
2023/02/09 02:47:27;;;;;;;;;;;;;;;-144.99;nan;52554.09;5030992;28;20478;-75
2023/02/09 02:49:56;;;;;;;;;;;;;;;-144.99;nan;52497.00;5031401;28;20007;-75
2023/02/09 02:52:23;;;;;;;;;;;;;;;-144.99;nan;52545.94;5029446;28;19971;-76
2023/02/09 02:54:53;;;;;;;;;;;;;;;-144.99;nan;52554.09;5037742;28;20028;-75
2023/02/09 02:57:22;;;;;;;;;;;;;;;-144.99;nan;52525.56;5030115;28;19964;-76
2023/02/09 02:59:52;;;;;;;;;;;;;;;-144.99;nan;52537.78;5028495;28;20459;-75
2023/02/09 03:02:22;;;;;;;;;;;;;;;-144.99;nan;52523.50;5027746;28;19964;-75
2023/02/09 03:04:52;;;;;;;;;;;;;;;-144.99;nan;52543.91;5026175;28;19940;-77
2023/02/09 03:07:18;;;;;;;;;;;;;;;-144.99;nan;52501.09;5051402;28;19929;-78
2023/02/09 03:09:48;;;;;;;;;;;;;;;-144.99;nan;52541.84;5051744;28;19933;-77
2023/02/09 03:12:18;;;;;;;;;;;;;;;-144.99;nan;52509.25;5049646;28;19936;-74
2023/02/09 03:14:48;;;;;;;;;;;;;;;-144.99;nan;52503.13;5027621;28;20003;-75
2023/02/09 03:17:23;;;;;;;;;;;;;;;-144.99;nan;52527.59;5027533;28;19952;-75
2023/02/09 03:19:53;;;;;;;;;;;;;;;-144.99;nan;52523.50;5021498;28;20304;-75
2023/02/09 03:22:23;;;;;;;;;;;;;;;-144.99;nan;52521.47;5020799;28;19976;-75
2023/02/09 03:24:54;;;;;;;;;;;;;;;-144.99;nan;52566.31;5026501;28;19980;-74
2023/02/09 03:27:22;;;;;;;;;;;;;;;-144.99;nan;52537.78;5025831;28;20098;-72
2023/02/09 03:29:50;;;;;;;;;;;;;;;-144.99;nan;52570.38;5024579;28;19972;-74
2023/02/09 03:32:17;;;;;;;;;;;;;;;-144.99;nan;52523.50;5026517;28;19960;-75
2023/02/09 03:34:44;;;;;;;;;;;;;;;-144.99;nan;52511.28;5026619;28;19968;-74
2023/02/09 03:37:12;;;;;;;;;;;;;;;-144.99;nan;52509.25;5025651;28;20340;-74
2023/02/09 03:39:39;;;;;;;;;;;;;;;-144.99;nan;52560.19;5029318;28;19964;-73
2023/02/09 03:42:05;;;;;;;;;;;;;;;-144.99;nan;52545.94;5026446;28;20790;-74
2023/02/09 03:44:32;;;;;;;;;;;;;;;-144.99;nan;52531.66;5032929;28;21069;-74
2023/02/09 03:47:00;;;;;;;;;;;;;;;-144.99;nan;52545.94;5039892;28;19925;-74
2023/02/09 03:49:27;;;;;;;;;;;;;;;-144.99;nan;52488.84;5041334;28;19960;-74
2023/02/09 03:51:53;;;;;;;;;;;;;;;-144.99;nan;52531.66;5049668;28;19925;-74
2023/02/09 03:54:21;;;;;;;;;;;;;;;-144.99;nan;52523.50;5049851;28;19965;-73
2023/02/09 03:56:48;;;;;;;;;;;;;;;-144.99;nan;52517.41;5045619;28;19925;-74
2023/02/09 03:59:14;;;;;;;;;;;;;;;-144.99;nan;52541.84;5094742;22;20505;-74
2023/02/09 04:01:41;;;;;;;;;;;;;;;-144.99;nan;52476.63;5076971;28;19928;-73
2023/02/09 04:04:07;;;;;;;;;;;;;;;-144.99;nan;52531.66;5066527;28;19924;-73
2023/02/09 04:06:34;;;;;;;;;;;;;;;-144.99;nan;52525.56;5066678;28;19983;-74
2023/02/09 04:09:02;;;;;;;;;;;;;;;-144.99;nan;52497.00;5066939;28;19999;-73
2023/02/09 04:11:30;;;;;;;;;;;;;;;-144.99;nan;52525.56;5065042;28;19925;-74
2023/02/09 04:13:56;;;;;;;;;;;;;;;-144.99;nan;52537.78;5073236;28;19971;-75
2023/02/09 04:16:23;;;;;;;;;;;;;;;-144.99;nan;52539.81;5074965;28;19928;-75
2023/02/09 04:18:49;;;;;;;;;;;;;;;-144.99;nan;52509.25;5067610;28;19971;-74
2023/02/09 04:21:16;;;;;;;;;;;;;;;-144.99;nan;52543.91;5079117;28;19928;-74
2023/02/09 04:23:42;;;;;;;;;;;;;;;-144.99;nan;52531.66;5069239;28;20031;-75
2023/02/09 04:26:09;;;;;;;;;;;;;;;-144.99;nan;52525.56;5069155;28;20463;-74
2023/02/09 04:28:37;;;;;;;;;;;;;;;-144.99;nan;52484.78;5070006;28;19995;-74
2023/02/09 04:31:03;;;;;;;;;;;;;;;-144.99;nan;52488.84;5067091;28;20467;-73
2023/02/09 04:33:30;;;;;;;;;;;;;;;-144.99;nan;52541.84;5075742;28;19982;-74
2023/02/09 04:35:57;;;;;;;;;;;;;;;-144.99;nan;52501.09;5082550;28;19952;-73
2023/02/09 04:38:24;;;;;;;;;;;;;;;-144.99;nan;52562.25;5076167;28;19966;-74
2023/02/09 04:40:52;;;;;;;;;;;;;;;-144.99;nan;52513.31;5087338;28;19924;-74
2023/02/09 04:43:19;;;;;;;;;;;;;;;-144.99;nan;52537.78;5073678;28;19929;-73
2023/02/09 04:45:47;;;;;;;;;;;;;;;-144.99;nan;52501.09;5070594;28;19963;-74
2023/02/09 04:48:15;;;;;;;;;;;;;;;-144.99;nan;52525.56;5072149;28;19979;-75
2023/02/09 04:50:41;;;;;;;;;;;;;;;-144.99;nan;52488.84;5067799;28;19964;-74
2023/02/09 04:53:08;;;;;;;;;;;;;;;-144.99;nan;52509.25;5068735;28;20011;-73
2023/02/09 04:55:36;;;;;;;;;;;;;;;-144.99;nan;52525.56;5068763;28;20477;-74
2023/02/09 05:00:48;;;;;;;;;;;;;;;-144.99;nan;52501.09;5081980;28;19943;-75
2023/02/09 05:03:14;;;;;;;;;;;;;;;-144.99;nan;52499.06;5069015;28;19972;-74
2023/02/09 05:05:41;;;;;;;;;;;;;;;-144.99;nan;52513.31;5068841;28;20011;-75
2023/02/09 05:08:07;;;;;;;;;;;;;;;-144.99;nan;52545.94;5069129;28;19982;-75
2023/02/09 05:10:34;;;;;;;;;;;;;;;-144.99;nan;52521.47;5069241;28;19925;-74
2023/02/09 05:13:01;;;;;;;;;;;;;;;-144.99;nan;52476.63;5069753;28;19952;-74
2023/02/09 05:15:27;;;;;;;;;;;;;;;-144.99;nan;52554.09;5066041;28;19978;-74
2023/02/09 05:17:55;;;;;;;;;;;;;;;-144.99;nan;52509.25;5067815;28;20399;-75
2023/02/09 05:20:21;;;;;;;;;;;;;;;-144.99;nan;52533.69;5069536;28;19963;-75
2023/02/09 05:22:48;;;;;;;;;;;;;;;-144.99;nan;52497.00;5093433;28;19916;-75
2023/02/09 05:25:14;;;;;;;;;;;;;;;-144.99;nan;52525.56;5083639;28;19936;-75
2023/02/09 05:27:41;;;;;;;;;;;;;;;-144.99;nan;52545.94;5078908;28;19924;-75
2023/02/09 05:30:08;;;;;;;;;;;;;;;-144.99;nan;52505.16;5084371;28;19964;-76
2023/02/09 05:32:34;;;;;;;;;;;;;;;-144.99;nan;52484.78;5070947;28;19967;-76
2023/02/09 05:35:02;;;;;;;;;;;;;;;-144.99;nan;52537.78;5081107;28;19964;-73
2023/02/09 05:37:29;;;;;;;;;;;;;;;-144.99;nan;52513.31;5071163;28;19975;-74
2023/02/09 05:39:56;;;;;;;;;;;;;;;-144.99;nan;52521.47;5087437;28;20496;-76
2023/02/09 05:42:22;;;;;;;;;;;;;;;-144.99;nan;52533.69;5083952;28;19924;-74
2023/02/09 05:44:49;;;;;;;;;;;;;;;-144.99;nan;52505.16;5069437;28;20310;-73
2023/02/09 05:47:17;;;;;;;;;;;;;;;-144.99;nan;52517.41;5069688;28;19928;-75
2023/02/09 05:49:44;;;;;;;;;;;;;;;-144.99;nan;52505.16;5069730;28;19984;-75
2023/02/09 05:52:12;;;;;;;;;;;;;;;-144.99;nan;52537.78;5068780;28;19978;-75
2023/02/09 05:54:39;;;;;;;;;;;;;;;-144.99;nan;52464.41;5068957;28;19958;-75
2023/02/09 05:57:06;;;;;;;;;;;;;;;-144.99;nan;52505.16;5069522;28;20403;-76
2023/02/09 05:59:32;;;;;;;;;;;;;;;-144.99;nan;52497.00;5081867;28;19928;-75
2023/02/09 06:01:59;;;;;;;;;;;;;;;-144.99;nan;52525.56;5078574;28;20467;-74
2023/02/09 06:04:26;;;;;;;;;;;;;;;-144.99;nan;52562.25;5087917;28;19931;-74
2023/02/09 06:06:53;;;;;;;;;;;;;;;-144.99;nan;52543.91;5077259;28;20380;-75
2023/02/09 06:09:21;;;;;;;;;;;;;;;-144.99;nan;52480.72;5066476;28;19928;-74
2023/02/09 06:11:47;;;;;;;;;;;;;;;-144.99;nan;52541.84;5076273;28;19975;-74
2023/02/09 06:14:14;;;;;;;;;;;;;;;-144.99;nan;52476.63;5078067;28;19958;-73
2023/02/09 06:16:40;;;;;;;;;;;;;;;-144.99;nan;52517.41;5078273;28;19970;-76
2023/02/09 06:19:07;;;;;;;;;;;;;;;-144.99;nan;52537.78;5078053;28;19960;-75
2023/02/09 06:21:33;;;;;;;;;;;;;;;-144.99;nan;52501.09;5081863;28;19929;-74
2023/02/09 06:24:00;;;;;;;;;;;;;;;-144.99;nan;52476.63;5083174;28;19924;-75
2023/02/09 06:26:27;;;;;;;;;;;;;;;-144.99;nan;52511.28;5082851;28;19936;-74
2023/02/09 06:28:54;;;;;;;;;;;;;;;-144.99;nan;52533.69;5082416;28;19959;-75
2023/02/09 06:31:20;;;;;;;;;;;;;;;-144.99;nan;52541.84;5081681;28;19925;-74
2023/02/09 06:33:47;;;;;;;;;;;;;;;-144.99;nan;52513.31;5082416;28;19932;-74
2023/02/09 06:36:13;;;;;;;;;;;;;;;-144.99;nan;52554.09;5082855;28;19963;-74
2023/02/09 06:38:40;;;;;;;;;;;;;;;-144.99;nan;52476.63;5081529;28;19971;-75
2023/02/09 06:41:06;;;;;;;;;;;;;;;-144.99;nan;52484.78;5079907;28;19928;-73
2023/02/09 06:43:34;;;;;;;;;;;;;;;-144.99;nan;52517.41;5081874;28;19936;-74
2023/02/09 06:46:04;;;;;;;;;;;;;;;-144.99;nan;52513.31;5088466;28;19925;-74
2023/02/09 06:48:31;;;;;;;;;;;;;;;-144.99;nan;52492.94;5083703;28;19924;-75
2023/02/09 06:50:57;;;;;;;;;;;;;;;-144.99;nan;52505.16;5082469;28;19944;-74
2023/02/09 06:53:24;;;;;;;;;;;;;;;-144.99;nan;52492.94;5081704;28;20001;-74
2023/02/09 06:55:50;;;;;;;;;;;;;;;-144.99;nan;52492.94;5082122;28;19947;-76
2023/02/09 06:58:17;;;;;;;;;;;;;;;-144.99;nan;52505.16;5075412;28;19925;-75
2023/02/09 07:00:44;;;;;;;;;;;;;;;-144.99;nan;52501.09;5066426;28;20384;-75
2023/02/09 07:03:11;;;;;;;;;;;;;;;-144.99;nan;52550.00;5071461;28;19936;-74
2023/02/09 07:05:37;;;;;;;;;;;;;;;-144.99;nan;52501.09;5071553;28;20001;-74
2023/02/09 07:08:04;;;;;;;;;;;;;;;-144.99;nan;52501.09;5068637;28;20018;-74
2023/02/09 07:10:30;;;;;;;;;;;;;;;-144.99;nan;52513.31;5066676;28;19971;-75
2023/02/09 07:12:57;;;;;;;;;;;;;;;-144.99;nan;52521.47;5074031;28;19932;-75
2023/02/09 07:15:23;;;;;;;;;;;;;;;-144.99;nan;52513.31;5075802;28;19947;-74
2023/02/09 07:17:51;;;;;;;;;;;;;;;-144.99;nan;52509.25;5072907;28;19963;-75
2023/02/09 07:20:18;;;;;;;;;;;;;;;-144.99;nan;52523.50;5068872;28;19931;-74
2023/02/09 07:22:44;;;;;;;;;;;;;;;-144.99;nan;52554.09;5066773;28;19990;-75
2023/02/09 07:25:11;;;;;;;;;;;;;;;-144.99;nan;52521.47;5069166;28;19966;-75
2023/02/09 07:27:37;;;;;;;;;;;;;;;-144.99;nan;52545.94;5082652;28;20118;-74
2023/02/09 07:30:04;;;;;;;;;;;;;;;-144.99;nan;52541.84;5074631;28;20675;-76
2023/02/09 07:32:30;;;;;;;;;;;;;;;-144.99;nan;52492.94;5065553;28;20027;-74
2023/02/09 07:34:58;;;;;;;;;;;;;;;-144.99;nan;52505.16;5067885;28;20419;-72
2023/02/09 07:37:24;;;;;;;;;;;;;;;-144.99;nan;52505.16;5067421;28;19929;-75
2023/02/09 07:39:51;;;;;;;;;;;;;;;-144.99;nan;52541.84;5067553;28;19978;-74
2023/02/09 07:42:17;;;;;;;;;;;;;;;-144.99;nan;52476.63;5066339;28;19937;-75
2023/02/09 07:44:44;;;;;;;;;;;;;;;-144.99;nan;52529.63;5061573;28;20399;-74
2023/02/09 07:47:10;;;;;;;;;;;;;;;-144.99;nan;52480.72;5067885;28;19929;-75
2023/02/09 07:49:37;;;;;;;;;;;;;;;-144.99;nan;52490.91;5067976;28;19987;-75
2023/02/09 07:52:05;;;;;;;;;;;;;;;-144.99;nan;52488.84;5067493;28;19971;-75
2023/02/09 07:54:31;;;;;;;;;;;;;;;-144.99;nan;52527.59;5069858;28;19925;-74
2023/02/09 07:56:58;;;;;;;;;;;;;;;-144.99;nan;52484.78;5071108;28;19968;-75
2023/02/09 07:59:24;;;;;;;;;;;;;;;-144.99;nan;52505.16;5069691;28;19986;-74
2023/02/09 08:01:51;;;;;;;;;;;;;;;-144.99;nan;52517.41;5070789;28;19995;-75
2023/02/09 08:04:17;;;;;;;;;;;;;;;-144.99;nan;52525.56;5073489;28;19924;-72
2023/02/09 08:06:45;;;;;;;;;;;;;;;-144.99;nan;52517.41;5072744;28;19928;-73
2023/02/09 08:09:15;;;;;;;;;;;;;;;-144.99;nan;52505.16;5092691;28;19913;-74
2023/02/09 08:11:43;;;;;;;;;;;;;;;-144.99;nan;52523.50;5086557;28;19934;-74
2023/02/09 08:14:11;;;;;;;;;;;;;;;-144.99;nan;52509.25;5071104;28;19968;-74
2023/02/09 08:16:37;;;;;;;;;;;;;;;-144.99;nan;52497.00;5070391;28;20251;-75
2023/02/09 08:19:05;;;;;;;;;;;;;;;-144.99;nan;52478.66;5070712;28;19971;-75
2023/02/09 08:21:34;;;;;;;;;;;;;;;-144.99;nan;52484.78;5071232;28;19967;-75
2023/02/09 08:24:00;;;;;;;;;;;;;;;-144.99;nan;52501.09;5070219;28;19967;-75
2023/02/09 08:26:29;;;;;;;;;;;;;;;-144.99;nan;52511.28;5069003;28;19976;-74
2023/02/09 08:28:56;;;;;;;;;;;;;;;-144.99;nan;52484.78;5070247;28;20355;-73
2023/02/09 08:31:22;;;;;;;;;;;;;;;-144.99;nan;52494.97;5068489;28;19980;-73
2023/02/09 08:33:50;;;;;;;;;;;;;;;-144.99;nan;52511.28;5068826;28;19924;-75
2023/02/09 08:36:17;;;;;;;;;;;;;;;-144.99;nan;52488.84;5070117;28;19975;-75
2023/02/09 08:38:44;;;;;;;;;;;;;;;-144.99;nan;52472.56;5069833;28;19967;-74
2023/02/09 08:41:12;;;;;;;;;;;;;;;-144.99;nan;52444.03;5069897;28;19959;-75
2023/02/09 08:43:40;;;;;;;;;;;;;;;-144.99;nan;52525.56;5069011;28;19971;-76
2023/02/09 08:46:07;;;;;;;;;;;;;;;-144.99;nan;52505.16;5065714;28;20347;-74
2023/02/09 08:48:34;;;;;;;;;;;;;;;-144.99;nan;52513.31;5070029;28;19956;-74
2023/02/09 08:51:01;;;;;;;;;;;;;;;-144.99;nan;52484.78;5091401;28;19919;-75
2023/02/09 08:53:27;;;;;;;;;;;;;;;-144.99;nan;52474.59;5082305;28;20300;-74
2023/02/09 08:55:57;;;;;;;;;;;;;;;-144.99;nan;52484.78;5068647;28;20344;-74
2023/02/09 08:58:23;;;;;;;;;;;;;;;-144.99;nan;52478.66;5068728;28;19925;-75
2023/02/09 09:00:52;;;;;;;;;;;;;;;-144.99;nan;52484.78;5068801;28;19928;-73
2023/02/09 09:03:18;;;;;;;;;;;;;;;-144.99;nan;52513.31;5073566;28;19959;-74
2023/02/09 09:05:45;;;;;;;;;;;;;;;-144.99;nan;52488.84;5071460;28;20348;-75
2023/02/09 09:08:11;;;;;;;;;;;;;;;-144.99;nan;52450.13;5076206;28;19933;-75
2023/02/09 09:10:37;;;;;;;;;;;;;;;-144.99;nan;52476.63;5069099;28;20411;-73
2023/02/09 09:13:04;;;;;;;;;;;;;;;-144.99;nan;52472.56;5069024;28;19987;-76
2023/02/09 09:15:30;;;;;;;;;;;;;;;-144.99;nan;52452.16;5068342;28;19978;-74
2023/02/09 09:18:00;;;;;;;;;;;;;;;-144.99;nan;52505.16;5067201;28;20447;-77
2023/02/09 09:20:27;;;;;;;;;;;;;;;-144.99;nan;52476.63;5062147;28;20023;-76
2023/02/09 09:22:58;;;;;;;;;;;;;;;-144.99;nan;52492.94;5067350;28;19929;-75
2023/02/09 09:25:24;;;;;;;;;;;;;;;-144.99;nan;52474.59;5066554;28;20014;-75
2023/02/09 09:27:51;;;;;;;;;;;;;;;-144.99;nan;52450.13;5067973;28;19959;-74
2023/02/09 09:30:17;;;;;;;;;;;;;;;-144.99;nan;52470.50;5067205;28;19967;-74
2023/02/09 09:32:44;;;;;;;;;;;;;;;-144.99;nan;52448.09;5069149;28;19928;-75
2023/02/09 09:35:11;;;;;;;;;;;;;;;-144.99;nan;52474.59;5069106;28;19979;-75
2023/02/09 09:37:38;;;;;;;;;;;;;;;-144.99;nan;52509.25;5071241;28;19928;-74
2023/02/09 09:40:04;;;;;;;;;;;;;;;-144.99;nan;52450.13;5076511;28;19928;-73
2023/02/09 09:42:33;;;;;;;;;;;;;;;-144.99;nan;52439.94;5075526;28;19924;-74
2023/02/09 09:44:59;;;;;;;;;;;;;;;-144.99;nan;52484.78;5080699;28;19924;-74
2023/02/09 09:47:33;;;;;;;;;;;;;;;-144.99;nan;52488.84;5081712;28;19924;-75
2023/02/09 09:49:59;;;;;;;;;;;;;;;-144.99;nan;52448.09;5078886;28;19929;-74
2023/02/09 09:52:30;;;;;;;;;;;;;;;-144.99;nan;52448.09;5079551;28;19970;-74
2023/02/09 09:54:57;;;;;;;;;;;;;;;-144.99;nan;52435.88;5080209;28;20058;-74
2023/02/09 09:57:24;;;;;;;;;;;;;;;-144.99;nan;52454.22;5080826;28;19998;-73
2023/02/09 09:59:51;;;;;;;;;;;;;;;-144.99;nan;52464.41;5081844;22;19932;-80
2023/02/09 10:02:22;;;;;;;;;;;;;;;-144.99;nan;52456.25;5049066;28;20483;-76
2023/02/09 10:04:49;;;;;;;;;;;;;;;-144.99;nan;52439.94;5068577;28;19968;-78
2023/02/09 10:07:16;;;;;;;;;;;;;;;-144.99;nan;52456.25;5068407;28;19925;-78
2023/02/09 10:09:47;;;;;;;;;;;;;;;-144.99;nan;52476.63;5046446;28;19925;-78
2023/02/09 10:12:23;;;;;;;;;;;;;;;-144.99;nan;52482.75;5046602;28;19924;-79
2023/02/09 10:14:49;;;;;;;;;;;;;;;-144.99;nan;52474.59;5046873;28;19928;-80
2023/02/09 10:17:15;;;;;;;;;;;;;;;-144.99;nan;52478.66;5046273;28;19971;-78
2023/02/09 10:19:42;;;;;;;;;;;;;;;-144.99;nan;52452.16;5045076;28;20005;-77
2023/02/09 10:22:11;;;;;;;;;;;;;;;-144.99;nan;52460.31;5027175;28;19965;-78
2023/02/09 10:24:38;;;;;;;;;;;;;;;-144.99;nan;52492.94;5044239;28;19929;-78
2023/02/09 10:27:08;;;;;;;;;;;;;;;-144.99;nan;52433.81;5044813;28;19961;-78
2023/02/09 10:29:35;;;;;;;;;;;;;;;-144.99;nan;52460.31;5042482;28;19968;-79
2023/02/09 10:32:05;;;;;;;;;;;;;;;-144.99;nan;52488.84;5046316;28;20015;-79
2023/02/09 10:34:32;;;;;;;;;;;;;;;-144.99;nan;52452.16;5046126;28;20043;-78
2023/02/09 10:37:15;;;;;;;;;;;;;;;-144.99;48.33;52444.03;5120968;27;19912;-73
2023/02/09 10:39:42;;;;;;;;;;;;;;;-144.99;47.73;52409.38;5113921;28;20055;-75
2023/02/09 10:42:17;;;;;;;;;;;;;;;-144.99;47.53;52415.47;5120380;28;19971;-73
2023/02/09 10:44:46;;;;;;;;;;;;;;;-144.99;47.29;52427.72;5120612;28;19967;-75
2023/02/09 10:47:26;;;;;;;;;;;;;;;-144.99;47.29;52415.47;5122313;28;19998;-74
2023/02/09 10:49:53;;;;;;;;;;;;;;;-144.99;46.53;52458.28;5116750;28;20060;-75
2023/02/09 10:52:23;;;;;;;;;;;;;;;-144.99;46.43;52386.94;5120611;28;20449;-73
2023/02/09 10:54:50;;;;;;;;;;;;;;;-144.99;46.10;52362.50;5119930;28;19985;-73
2023/02/09 10:57:25;;;;;;;;;;;;;;;-144.99;46.58;52403.25;5115598;28;19924;-73
2023/02/09 10:59:52;;;;;;;;;;;;;;;-144.99;46.80;52411.41;5121236;28;20392;-74
2023/02/09 11:02:29;;;;;;;;;;;;;;;-144.99;46.19;52382.88;5116278;28;20094;-74
2023/02/09 11:04:56;;;;;;;;;;;;;;;-144.99;45.93;52413.44;5124516;28;19935;-74
2023/02/09 11:07:28;;;;;;;;;;;;;;;-144.99;45.65;52399.19;5123588;28;19975;-74
2023/02/09 11:09:58;;;;;;;;;;;;;;;-144.99;45.59;52399.19;5116414;28;20227;-74
2023/02/09 11:12:27;;;;;;;;;;;;;;;-144.99;46.06;52427.72;5118397;28;19923;-73
2023/02/09 11:14:54;;;;;;;;;;;;;;;-144.99;46.27;52435.88;5117431;28;19923;-74
2023/02/09 11:17:23;;;;;;;;;;;;;;;-144.99;46.71;52431.78;5111865;28;19935;-74
2023/02/09 11:20:13;;;;;;;;;;;;;;;-144.99;47.05;52395.09;5113203;27;19959;-74
2023/02/09 11:22:51;;;;;;;;;;;;;;;-144.99;46.98;52407.31;5117948;28;20131;-74
2023/02/09 11:25:19;;;;;;;;;;;;;;;-144.99;47.03;52423.63;5126758;28;19987;-75
2023/02/09 11:27:55;;;;;;;;;;;;;;;-144.99;47.10;52431.78;5126406;28;20178;-74
2023/02/09 11:30:28;;;;;;;;;;;;;;;-144.99;47.12;52395.09;5117858;28;19975;-75
2023/02/09 11:32:57;;;;;;;;;;;;;;;-144.99;47.41;52399.19;5115859;28;19959;-71
2023/02/09 11:35:25;;;;;;;;;;;;;;;-144.99;47.17;52415.47;5115862;28;19924;-73
2023/02/09 11:37:56;;;;;;;;;;;;;;;-144.99;47.24;52401.22;5122107;28;19923;-73
2023/02/09 11:40:24;;;;;;;;;;;;;;;-144.99;47.10;52423.63;5123055;28;19924;-72
2023/02/09 11:42:55;;;;;;;;;;;;;;;-144.99;47.43;52391.03;5108867;28;20460;-74
2023/02/09 11:45:26;;;;;;;;;;;;;;;-144.99;47.92;52439.94;5116209;28;19947;-73
2023/02/09 11:48:09;;;;;;;;;;;;;;;-144.99;47.47;52444.03;5104794;28;19964;-73
2023/02/09 11:50:39;;;;;;;;;;;;;;;-144.99;47.61;52427.72;5103590;28;19966;-72
2023/02/09 11:53:13;;;;;;;;;;;;;;;-144.99;47.29;52431.78;5108543;28;20076;-72
2023/02/09 11:55:42;;;;;;;;;;;;;;;-144.99;46.65;52423.63;5107415;28;20312;-72
2023/02/09 11:58:15;;;;;;;;;;;;;;;-144.99;46.77;52427.72;5104715;28;20980;-73
2023/02/09 12:00:45;;;;;;;;;;;;;;;-144.99;46.48;52395.09;5102650;28;20013;-73
2023/02/09 12:03:13;;;;;;;;;;;;;;;-144.99;45.88;52382.88;5103756;28;19928;-73
2023/02/09 12:05:41;;;;;;;;;;;;;;;-144.99;45.70;52417.53;5100487;28;19975;-71
2023/02/09 12:08:31;;;;;;;;;;;;;;;-144.99;45.42;52399.19;5104835;28;20322;-71
2023/02/09 12:11:15;;;;;;;;;;;;;;;-144.99;45.28;52423.63;5087560;28;19924;-71
2023/02/09 12:13:48;;;;;;;;;;;;;;;-144.99;45.79;52413.44;5095607;28;19944;-71
2023/02/09 12:16:17;;;;;;;;;;;;;;;-144.99;45.96;52409.38;5105838;28;20353;-71
2023/02/09 12:18:45;;;;;;;;;;;;;;;-144.99;46.24;52423.63;5099946;28;19924;-71
2023/02/09 12:21:11;;;;;;;;;;;;;;;-144.99;46.68;52462.34;5102466;27;20068;-71
2023/02/09 12:23:38;;;;;;;;;;;;;;;-144.99;47.34;52494.97;5104493;28;19992;-72
2023/02/09 12:26:20;;;;;;;;;;;;;;;-144.99;48.30;52484.78;5108531;28;19988;-72
2023/02/09 12:28:48;;;;;;;;;;;;;;;-144.99;48.87;52480.72;5104992;28;19959;-72
2023/02/09 12:31:25;;;;;;;;;;;;;;;-144.99;49.21;52444.03;5100397;28;20369;-71
2023/02/09 12:34:11;;;;;;;;;;;;;;;-144.99;49.37;52505.16;5101146;28;19924;-72
2023/02/09 12:36:57;;;;;;;;;;;;;;;-144.99;49.93;52480.72;5095449;28;20410;-72
2023/02/09 12:39:25;;;;;;;;;;;;;;;-144.99;50.25;52431.78;5108289;28;19963;-73
2023/02/09 12:42:10;;;;;;;;;;;;;;;-144.99;50.75;52480.72;5103352;28;19924;-74
2023/02/09 12:44:39;;;;;;;;;;;;;;;-144.99;50.82;52480.72;5103550;28;19939;-74
2023/02/09 12:47:28;;;;;;;;;;;;;;;-144.99;50.77;52509.25;5107466;28;20018;-74
2023/02/09 12:50:02;;;;;;;;;;;;;;;-144.99;50.95;52472.56;5097714;28;19996;-75
2023/02/09 12:52:29;;;;;;;;;;;;;;;-144.99;51.19;52482.75;5105761;28;19928;-74
2023/02/09 12:54:56;;;;;;;;;;;;;;;-144.99;51.25;52484.78;5106628;28;19981;-73